Time;durP1;ratioP1;P1;durP2;ratioP2;P2;SDS_P1;SDS_P2;PMS_P1;PMS_P2;Temp;Humidity;BMP_temperature;BMP_pressure;BME280_temperature;BME280_humidity;BME280_pressure;Samples;Min_cycle;Max_cycle;Signal;HPM_P1;HPM_P2
2023/03/13 17:33:02;;;;;;;2.47;0.60;;;15.40;99.90;;;;;;4837472;29;20301;-68
2023/03/13 17:35:29;;;;;;;4.43;0.77;;;15.40;99.90;;;;;;4842694;29;20227;-68
2023/03/13 17:37:55;;;;;;;3.43;0.80;;;15.30;99.90;;;;;;4843348;29;20240;-69
2023/03/13 17:40:24;;;;;;;5.43;1.47;;;15.40;99.90;;;;;;4843239;29;20576;-69
2023/03/13 17:42:51;;;;;;;2.50;0.80;;;15.30;99.90;;;;;;4843304;29;20576;-68
2023/03/13 17:45:19;;;;;;;5.23;0.70;;;15.20;99.90;;;;;;4843277;29;20236;-68
2023/03/13 17:47:47;;;;;;;4.67;1.63;;;15.10;99.90;;;;;;4843267;29;20244;-73
2023/03/13 17:50:19;;;;;;;6.33;1.17;;;15.10;99.90;;;;;;4843192;29;20246;-74
2023/03/13 17:52:46;;;;;;;4.47;1.20;;;15.00;99.90;;;;;;4836628;29;20219;-73
2023/03/13 17:55:13;;;;;;;2.23;0.80;;;15.00;99.90;;;;;;4840880;29;20217;-71
2023/03/13 17:57:40;;;;;;;2.33;0.70;;;15.00;99.90;;;;;;4841396;29;20619;-71
2023/03/13 18:00:18;;;;;;;5.23;0.70;;;14.90;99.90;;;;;;4841126;29;20252;-68
2023/03/13 18:02:45;;;;;;;3.87;0.70;;;14.90;99.90;;;;;;4841201;29;20212;-70
2023/03/13 18:05:12;;;;;;;3.77;0.70;;;14.90;99.90;;;;;;4841595;29;20219;-70
2023/03/13 18:07:43;;;;;;;1.40;0.60;;;14.80;99.90;;;;;;4841035;29;20247;-70
2023/03/13 18:10:20;;;;;;;4.47;0.50;;;14.70;99.90;;;;;;4841376;29;20572;-69
2023/03/13 18:12:47;;;;;;;2.73;0.70;;;14.70;99.90;;;;;;4841479;29;20209;-69
2023/03/13 18:15:14;;;;;;;2.37;0.70;;;14.70;99.90;;;;;;4840431;29;20213;-68
2023/03/13 18:17:41;;;;;;;5.30;0.60;;;14.60;99.90;;;;;;4840970;29;20335;-69
2023/03/13 18:20:15;;;;;;;3.80;0.90;;;14.50;99.90;;;;;;4841204;29;20212;-69
2023/03/13 18:22:44;;;;;;;4.10;1.50;;;14.50;99.90;;;;;;4840342;29;20217;-69
2023/03/13 18:25:11;;;;;;;4.30;2.10;;;14.50;99.90;;;;;;4841258;29;20236;-69
2023/03/13 18:27:38;;;;;;;7.70;1.30;;;14.40;99.90;;;;;;4840817;29;20224;-70
2023/03/13 18:30:14;;;;;;;1.90;0.90;;;14.40;99.90;;;;;;4840727;29;20219;-71
2023/03/13 18:32:41;;;;;;;2.50;0.90;;;14.40;99.90;;;;;;4840464;29;20579;-70
2023/03/13 18:35:08;;;;;;;3.73;0.93;;;14.30;99.90;;;;;;4841541;29;20204;-71
2023/03/13 18:37:35;;;;;;;5.60;0.90;;;14.30;99.90;;;;;;4841797;29;20241;-69
2023/03/13 18:40:06;;;;;;;2.30;0.90;;;14.20;99.90;;;;;;4842036;29;20217;-70
2023/03/13 18:42:33;;;;;;;4.53;0.80;;;14.20;99.90;;;;;;4842131;29;20208;-70
2023/03/13 18:45:00;;;;;;;3.27;0.77;;;14.10;99.90;;;;;;4842030;29;20217;-71
2023/03/13 18:47:27;;;;;;;4.30;0.70;;;14.10;99.90;;;;;;4841918;29;20225;-71
2023/03/13 18:49:54;;;;;;;1.50;0.70;;;14.00;99.90;;;;;;4841815;29;20208;-70
2023/03/13 18:52:21;;;;;;;3.93;1.27;;;14.00;99.90;;;;;;4841633;29;20216;-71
2023/03/13 18:54:48;;;;;;;1.93;0.80;;;14.00;99.90;;;;;;4841805;29;20256;-71
2023/03/13 18:57:18;;;;;;;2.57;1.10;;;13.90;99.90;;;;;;4841711;29;20254;-71
2023/03/13 18:59:45;;;;;;;1.33;0.63;;;13.80;99.90;;;;;;4841267;29;20212;-71
2023/03/13 19:02:14;;;;;;;2.17;0.70;;;13.80;99.90;;;;;;4841370;29;20213;-71
2023/03/13 19:04:41;;;;;;;2.83;0.70;;;13.80;99.90;;;;;;4841347;29;20224;-70
2023/03/13 19:07:13;;;;;;;5.83;0.63;;;13.80;99.90;;;;;;4841551;29;20227;-71
2023/03/13 19:09:40;;;;;;;2.73;0.73;;;13.70;99.90;;;;;;4840900;29;20576;-71
2023/03/13 19:12:07;;;;;;;2.83;1.23;;;13.60;99.90;;;;;;4841263;29;20208;-71
2023/03/13 19:14:36;;;;;;;2.20;0.60;;;13.60;99.90;;;;;;4836824;29;20209;-70
2023/03/13 19:17:05;;;;;;;6.37;0.80;;;13.50;99.90;;;;;;4833917;29;20209;-70
2023/03/13 19:19:32;;;;;;;2.20;0.57;;;13.50;99.90;;;;;;4841430;29;20294;-70
2023/03/13 19:21:59;;;;;;;2.60;0.50;;;13.40;99.90;;;;;;4841501;29;20212;-72
2023/03/13 19:24:26;;;;;;;2.00;0.80;;;13.40;99.90;;;;;;4841496;29;20229;-71
2023/03/13 19:26:57;;;;;;;3.10;0.93;;;13.40;99.90;;;;;;4841456;29;20208;-71
2023/03/13 19:29:25;;;;;;;3.33;0.90;;;13.30;99.90;;;;;;4841120;29;20233;-70
2023/03/13 19:31:54;;;;;;;2.63;0.60;;;13.30;99.90;;;;;;4841317;29;20241;-70
2023/03/13 19:34:21;;;;;;;4.00;0.97;;;13.30;99.90;;;;;;4840228;29;20660;-70
2023/03/13 19:36:51;;;;;;;3.40;0.60;;;13.20;99.90;;;;;;4839138;29;20213;-70
2023/03/13 19:39:22;;;;;;;1.83;0.70;;;13.10;99.90;;;;;;4839710;29;20256;-69
2023/03/13 19:41:49;;;;;;;1.83;0.90;;;13.20;99.90;;;;;;4840863;29;20228;-70
2023/03/13 19:44:17;;;;;;;2.93;0.50;;;13.10;99.90;;;;;;4841707;29;20568;-70
2023/03/13 19:46:44;;;;;;;2.87;0.83;;;13.10;99.90;;;;;;4841454;29;20212;-70
2023/03/13 19:49:15;;;;;;;2.83;0.70;;;13.10;99.90;;;;;;4842044;29;20243;-70
2023/03/13 19:51:42;;;;;;;3.87;0.90;;;13.00;99.90;;;;;;4842021;29;20216;-70
2023/03/13 19:54:10;;;;;;;5.47;0.83;;;13.00;99.90;;;;;;4841978;29;20668;-70
2023/03/13 19:56:39;;;;;;;2.13;0.70;;;13.00;99.90;;;;;;4842140;29;20219;-70
2023/03/13 19:59:10;;;;;;;2.07;0.67;;;13.00;99.90;;;;;;4841951;29;20275;-70
2023/03/13 20:01:36;;;;;;;3.93;0.97;;;12.90;99.90;;;;;;4841869;29;20240;-70
2023/03/13 20:04:03;;;;;;;3.63;0.60;;;12.90;99.90;;;;;;4841925;29;20213;-70
2023/03/13 20:06:33;;;;;;;2.33;0.47;;;12.90;99.90;;;;;;4841651;29;20227;-70
2023/03/13 20:09:02;;;;;;;1.53;0.93;;;12.80;99.90;;;;;;4841606;29;20240;-69
2023/03/13 20:11:30;;;;;;;5.63;0.70;;;12.80;99.90;;;;;;4841396;29;20216;-69
2023/03/13 20:13:58;;;;;;;4.90;0.80;;;12.80;99.90;;;;;;4841715;29;20672;-70
2023/03/13 20:16:26;;;;;;;1.47;0.60;;;12.80;99.90;;;;;;4841840;29;20553;-70
2023/03/13 20:18:55;;;;;;;5.10;0.70;;;12.80;99.90;;;;;;4842283;29;20250;-70
2023/03/13 20:21:23;;;;;;;4.30;0.60;;;12.80;99.90;;;;;;4844851;29;20303;-71
2023/03/13 20:23:51;;;;;;;4.70;0.70;;;12.70;99.90;;;;;;4844877;29;20223;-71
2023/03/13 20:26:20;;;;;;;2.47;0.60;;;12.70;99.90;;;;;;4845010;29;20631;-70
2023/03/13 20:28:49;;;;;;;1.63;0.70;;;12.70;99.90;;;;;;4844684;29;20233;-70
2023/03/13 20:31:17;;;;;;;3.47;0.70;;;12.60;99.90;;;;;;4844788;29;20228;-70
2023/03/13 20:33:44;;;;;;;2.23;0.67;;;12.60;99.90;;;;;;4844682;29;20212;-70
2023/03/13 20:36:13;;;;;;;2.70;0.60;;;12.60;99.90;;;;;;4844834;29;20215;-70
2023/03/13 20:38:41;;;;;;;2.83;0.80;;;12.60;99.90;;;;;;4844854;29;20251;-72
2023/03/13 20:41:10;;;;;;;2.20;0.70;;;12.60;99.90;;;;;;4844720;29;20220;-71
2023/03/13 20:43:37;;;;;;;4.00;0.60;;;12.60;99.90;;;;;;4844758;29;20213;-70
2023/03/13 20:46:06;;;;;;;2.57;0.77;;;12.60;99.90;;;;;;4844528;29;20235;-70
2023/03/13 20:48:35;;;;;;;1.50;0.70;;;12.50;99.90;;;;;;4844171;29;20229;-70
2023/03/13 20:51:02;;;;;;;6.47;0.90;;;12.50;99.90;;;;;;4844496;29;20213;-70
2023/03/13 20:53:29;;;;;;;3.73;0.77;;;12.50;99.90;;;;;;4844612;29;20213;-70
2023/03/13 20:55:56;;;;;;;1.53;0.80;;;12.50;99.90;;;;;;4844622;29;20212;-70
2023/03/13 20:58:24;;;;;;;5.83;0.90;;;12.60;99.90;;;;;;4844270;29;20252;-70
2023/03/13 21:00:51;;;;;;;2.00;0.80;;;12.50;99.90;;;;;;4844224;29;20228;-70
2023/03/13 21:03:18;;;;;;;2.43;0.60;;;12.50;99.90;;;;;;4844535;29;20212;-70
2023/03/13 21:05:45;;;;;;;3.67;0.80;;;12.50;99.90;;;;;;4844180;29;20308;-71
2023/03/13 21:08:12;;;;;;;1.47;0.60;;;12.50;99.90;;;;;;4844407;29;20232;-70
2023/03/13 21:10:41;;;;;;;3.13;0.80;;;12.50;99.90;;;;;;4844455;29;20221;-70
2023/03/13 21:13:09;;;;;;;3.43;0.87;;;12.40;99.90;;;;;;4843907;29;20618;-69
2023/03/13 21:15:39;;;;;;;3.83;0.80;;;12.40;99.90;;;;;;4844043;29;20217;-71
2023/03/13 21:18:06;;;;;;;0.93;0.60;;;12.40;99.90;;;;;;4843720;29;20253;-70
2023/03/13 21:20:33;;;;;;;4.27;0.87;;;12.40;99.90;;;;;;4843963;29;20303;-70
2023/03/13 21:23:00;;;;;;;3.60;0.63;;;12.40;99.90;;;;;;4843548;29;20220;-70
2023/03/13 21:25:27;;;;;;;1.90;0.60;;;12.40;99.90;;;;;;4843479;29;20546;-71
2023/03/13 21:27:53;;;;;;;4.23;1.53;;;12.40;99.90;;;;;;4843210;29;20735;-70
2023/03/13 21:30:21;;;;;;;2.90;0.60;;;12.40;99.90;;;;;;4843273;29;20571;-70
2023/03/13 21:32:49;;;;;;;3.90;0.60;;;12.50;99.90;;;;;;4843483;29;20220;-70
2023/03/13 21:35:16;;;;;;;6.53;1.13;;;12.50;99.90;;;;;;4843396;29;20216;-70
2023/03/13 21:37:44;;;;;;;6.67;0.90;;;12.40;99.90;;;;;;4843499;29;20237;-70
2023/03/13 21:40:12;;;;;;;4.33;0.80;;;12.40;99.90;;;;;;4843670;29;20219;-70
